Time;durP1;ratioP1;P1;durP2;ratioP2;P2;SDS_P1;SDS_P2;PMS_P1;PMS_P2;Temp;Humidity;BMP_temperature;BMP_pressure;BME280_temperature;BME280_humidity;BME280_pressure;Samples;Min_cycle;Max_cycle;Signal;HPM_P1;HPM_P2
2022/02/19 00:00:08;;;;;;;10.00;2.30;;;7.60;93.80;;;;;;6239544;22;20020;-60
2022/02/19 00:02:33;;;;;;;13.63;2.63;;;7.50;93.80;;;;;;6238776;22;20394;-61
2022/02/19 00:04:59;;;;;;;20.33;3.13;;;7.50;93.60;;;;;;6237914;23;20039;-60
2022/02/19 00:07:24;;;;;;;16.60;4.32;;;7.60;93.50;;;;;;6237883;23;20192;-60
2022/02/19 00:09:50;;;;;;;9.57;2.72;;;7.50;92.70;;;;;;6239685;23;20071;-60
2022/02/19 00:12:15;;;;;;;16.40;3.65;;;7.60;91.90;;;;;;6238342;23;20009;-60
2022/02/19 00:14:41;;;;;;;14.75;2.85;;;7.60;91.10;;;;;;6239349;23;20031;-60
2022/02/19 00:17:06;;;;;;;11.95;2.25;;;7.60;91.10;;;;;;6239490;23;20000;-61
2022/02/19 00:19:32;;;;;;;12.07;2.60;;;7.60;90.30;;;;;;6237787;23;20078;-60
2022/02/19 00:21:57;;;;;;;10.52;2.17;;;7.60;89.70;;;;;;6237117;23;20385;-60
2022/02/19 00:24:23;;;;;;;16.75;3.15;;;7.60;89.10;;;;;;6239159;23;20012;-60
2022/02/19 00:26:49;;;;;;;15.95;2.83;;;7.60;89.20;;;;;;6237293;23;20008;-60
2022/02/19 00:29:14;;;;;;;13.65;3.05;;;7.60;88.60;;;;;;6239279;23;20004;-60
2022/02/19 00:31:40;;;;;;;19.42;2.80;;;7.60;88.20;;;;;;6238950;23;20439;-60
2022/02/19 00:34:06;;;;;;;7.72;2.65;;;7.60;87.50;;;;;;6238646;23;20005;-60
2022/02/19 00:36:32;;;;;;;16.23;3.83;;;7.60;86.90;;;;;;6239286;22;20007;-60
2022/02/19 00:38:58;;;;;;;11.98;2.75;;;7.50;88.10;;;;;;6239460;22;20004;-59
2022/02/19 00:41:24;;;;;;;10.98;3.15;;;7.50;86.70;;;;;;6238916;22;20004;-60
2022/02/19 00:43:51;;;;;;;15.10;2.88;;;7.40;86.40;;;;;;6236686;23;20091;-60
2022/02/19 00:46:16;;;;;;;23.10;3.00;;;7.40;86.40;;;;;;6239655;23;20470;-60
2022/02/19 00:48:42;;;;;;;9.73;2.70;;;7.40;87.90;;;;;;6241268;23;20000;-60
2022/02/19 00:51:07;;;;;;;17.23;2.63;;;7.40;87.20;;;;;;6239448;23;20023;-57
2022/02/19 00:53:33;;;;;;;10.40;2.63;;;7.50;86.90;;;;;;6240508;23;20018;-57
2022/02/19 00:55:58;;;;;;;13.40;2.67;;;7.40;87.90;;;;;;6240803;23;20002;-57
2022/02/19 00:58:24;;;;;;;21.05;2.88;;;7.40;88.80;;;;;;6239624;23;20339;-57
2022/02/19 01:00:49;;;;;;;14.45;3.50;;;7.40;88.10;;;;;;6241005;23;20050;-57
2022/02/19 01:03:15;;;;;;;12.05;2.47;;;7.30;88.40;;;;;;6240254;23;20570;-57
2022/02/19 01:05:40;;;;;;;15.00;3.15;;;7.30;88.00;;;;;;6241359;23;20047;-57
2022/02/19 01:08:06;;;;;;;9.15;2.45;;;7.30;89.20;;;;;;6241346;23;20000;-57
2022/02/19 01:10:32;;;;;;;17.98;3.40;;;7.30;88.40;;;;;;6239491;23;20000;-57
2022/02/19 01:12:57;;;;;;;16.80;2.85;;;7.40;88.10;;;;;;6238080;23;20374;-58
2022/02/19 01:15:25;;;;;;;17.77;3.53;;;7.40;87.00;;;;;;6241043;23;19992;-58
2022/02/19 01:17:51;;;;;;;20.27;4.30;;;7.30;88.20;;;;;;6240882;22;20000;-58
2022/02/19 01:20:16;;;;;;;12.43;3.17;;;7.30;88.70;;;;;;6239688;23;20312;-58
2022/02/19 01:22:42;;;;;;;15.45;2.72;;;7.30;88.90;;;;;;6238364;23;20050;-58
2022/02/19 01:25:10;;;;;;;14.68;2.97;;;7.30;88.50;;;;;;6240831;23;20008;-58
2022/02/19 01:27:35;;;;;;;11.90;2.75;;;7.30;89.50;;;;;;6238949;23;20004;-58
2022/02/19 01:30:01;;;;;;;19.40;3.83;;;7.30;90.00;;;;;;6240788;23;20050;-58
2022/02/19 01:32:27;;;;;;;17.88;2.92;;;7.30;88.50;;;;;;6240610;22;20004;-58
2022/02/19 01:34:52;;;;;;;13.25;3.40;;;7.30;89.70;;;;;;6240700;23;20004;-58
2022/02/19 01:37:18;;;;;;;16.23;3.63;;;7.30;89.20;;;;;;6241129;23;20415;-58
2022/02/19 01:39:44;;;;;;;12.40;2.50;;;7.40;88.90;;;;;;6240613;23;20004;-58
2022/02/19 01:42:10;;;;;;;10.27;3.05;;;7.30;88.60;;;;;;6240138;22;20014;-58
2022/02/19 01:44:37;;;;;;;15.35;2.83;;;7.30;88.90;;;;;;6240080;23;20078;-58
2022/02/19 01:47:04;;;;;;;10.80;2.80;;;7.20;89.20;;;;;;6239149;23;20173;-58
2022/02/19 01:49:30;;;;;;;15.63;2.92;;;7.30;89.20;;;;;;6239210;23;20458;-58
2022/02/19 01:51:56;;;;;;;16.98;3.05;;;7.30;88.70;;;;;;6240165;23;20000;-57
2022/02/19 01:54:21;;;;;;;14.35;2.63;;;7.20;89.70;;;;;;6240096;23;20007;-57
2022/02/19 01:56:47;;;;;;;10.60;2.72;;;7.20;89.90;;;;;;6239846;23;20216;-58
2022/02/19 01:59:12;;;;;;;12.82;2.42;;;7.10;89.70;;;;;;6240647;23;20008;-59
2022/02/19 02:01:38;;;;;;;12.05;2.38;;;7.10;90.30;;;;;;6240564;23;20079;-59
2022/02/19 02:04:04;;;;;;;11.27;2.05;;;7.10;89.50;;;;;;6239928;22;20000;-59
2022/02/19 02:06:31;;;;;;;10.30;2.67;;;7.10;89.20;;;;;;6240757;23;20011;-59
2022/02/19 02:08:58;;;;;;;11.32;2.10;;;7.10;89.00;;;;;;6240822;22;20027;-59
2022/02/19 02:11:24;;;;;;;14.70;2.90;;;7.10;88.50;;;;;;6239764;22;20015;-59
2022/02/19 02:13:51;;;;;;;11.65;2.13;;;7.10;88.10;;;;;;6239467;23;20019;-59
2022/02/19 02:16:16;;;;;;;11.05;1.95;;;7.10;88.00;;;;;;6238742;23;20000;-60
2022/02/19 02:18:43;;;;;;;15.35;2.67;;;7.10;88.80;;;;;;6240512;23;20161;-59
2022/02/19 02:21:09;;;;;;;21.35;3.25;;;7.10;90.40;;;;;;6240457;22;20000;-59
2022/02/19 02:23:35;;;;;;;15.85;2.63;;;7.00;90.00;;;;;;6239602;22;20106;-59
2022/02/19 02:26:02;;;;;;;10.48;2.85;;;7.00;89.90;;;;;;6240101;23;20035;-60
2022/02/19 02:28:28;;;;;;;9.70;2.55;;;6.90;90.20;;;;;;6240384;22;20267;-60
2022/02/19 02:30:54;;;;;;;8.25;2.40;;;6.80;90.50;;;;;;6240843;23;20103;-60
2022/02/19 02:33:22;;;;;;;9.43;2.42;;;6.80;90.20;;;;;;6216269;22;20044;-80
2022/02/19 02:35:49;;;;;;;6.88;1.80;;;6.80;90.80;;;;;;6196505;23;20005;-79
2022/02/19 02:38:16;;;;;;;9.98;1.85;;;6.70;90.20;;;;;;6179226;23;20028;-80
2022/02/19 02:40:42;;;;;;;13.65;2.05;;;6.60;90.40;;;;;;6181679;23;20002;-80
2022/02/19 02:43:08;;;;;;;10.13;2.13;;;6.70;90.30;;;;;;6178775;23;20083;-80
2022/02/19 02:45:33;;;;;;;6.22;1.85;;;6.70;90.30;;;;;;6179989;23;20037;-80
2022/02/19 02:47:59;;;;;;;8.27;1.95;;;6.70;90.30;;;;;;6181589;23;20388;-80
2022/02/19 02:50:24;;;;;;;7.55;1.80;;;6.70;90.10;;;;;;6180914;23;20055;-78
2022/02/19 02:52:50;;;;;;;8.57;2.63;;;6.70;90.20;;;;;;6180053;23;20105;-78
2022/02/19 02:55:18;;;;;;;10.02;1.80;;;6.70;90.90;;;;;;6180707;23;20332;-78
2022/02/19 02:57:44;;;;;;;9.43;1.75;;;6.70;90.70;;;;;;6180358;23;20001;-78
2022/02/19 03:00:12;;;;;;;11.13;2.10;;;6.70;91.00;;;;;;6180629;23;20352;-78
2022/02/19 03:02:39;;;;;;;8.98;1.98;;;6.70;91.40;;;;;;6179527;23;20009;-74
2022/02/19 03:05:07;;;;;;;7.68;2.20;;;6.70;91.90;;;;;;6180278;23;20032;-73
2022/02/19 03:07:35;;;;;;;10.85;2.20;;;6.70;91.30;;;;;;6180009;23;20013;-73
2022/02/19 03:10:01;;;;;;;13.95;4.85;;;6.60;92.00;;;;;;6179717;23;20079;-74
2022/02/19 03:12:27;;;;;;;10.27;2.25;;;6.60;92.10;;;;;;6176730;23;20001;-74
2022/02/19 03:14:53;;;;;;;12.57;2.10;;;6.60;92.40;;;;;;6178200;23;20037;-73
2022/02/19 03:17:19;;;;;;;18.52;2.63;;;6.60;92.90;;;;;;6178224;23;20001;-74
2022/02/19 03:19:45;;;;;;;7.93;2.28;;;6.60;93.50;;;;;;6178865;23;20001;-74
2022/02/19 03:22:10;;;;;;;6.80;2.22;;;6.40;94.30;;;;;;6179163;23;20444;-73
2022/02/19 03:24:36;;;;;;;11.20;2.38;;;6.40;94.80;;;;;;6177726;23;20087;-74
2022/02/19 03:27:02;;;;;;;13.60;2.78;;;6.40;95.30;;;;;;6177429;23;20012;-74
2022/02/19 03:29:29;;;;;;;8.38;2.15;;;6.40;95.30;;;;;;6180281;23;20001;-74
2022/02/19 03:31:55;;;;;;;10.13;1.90;;;6.40;97.20;;;;;;6177793;23;20093;-74
2022/02/19 03:34:21;;;;;;;12.95;2.40;;;6.20;98.50;;;;;;6179926;23;20005;-74
2022/02/19 03:36:47;;;;;;;11.55;2.63;;;6.10;99.90;;;;;;6178375;23;20005;-74
2022/02/19 03:42:01;;;;;;;12.93;1.95;;;5.90;99.90;;;;;;6171134;23;20253;-74
2022/02/19 03:44:27;;;;;;;11.48;2.72;;;5.80;99.90;;;;;;6178649;23;20001;-74
2022/02/19 03:46:53;;;;;;;12.80;2.63;;;5.60;99.90;;;;;;6179809;23;20016;-75
2022/02/19 03:49:18;;;;;;;8.68;1.90;;;5.50;99.90;;;;;;6179723;23;20072;-74
2022/02/19 03:51:44;;;;;;;14.88;2.50;;;5.50;99.90;;;;;;6177493;23;20313;-74
2022/02/19 03:54:10;;;;;;;10.93;2.70;;;5.40;99.90;;;;;;6178621;23;20427;-74
2022/02/19 03:56:35;;;;;;;14.18;3.22;;;5.50;99.90;;;;;;6179682;23;20337;-74
2022/02/19 03:59:01;;;;;;;10.57;2.75;;;5.50;99.90;;;;;;6179656;23;20009;-74
2022/02/19 04:01:26;;;;;;;14.82;2.42;;;5.50;99.90;;;;;;6179562;23;20436;-74
2022/02/19 04:03:52;;;;;;;9.13;2.10;;;5.50;99.90;;;;;;6179294;23;20005;-74
2022/02/19 04:06:25;;;;;;;13.50;2.20;;;5.50;99.90;;;;;;6178510;23;20432;-75
2022/02/19 04:08:53;;;;;;;10.80;2.25;;;5.50;99.90;;;;;;6178064;23;20029;-75
2022/02/19 04:11:19;;;;;;;11.40;2.30;;;5.50;99.90;;;;;;6179053;23;20001;-74
2022/02/19 04:13:47;;;;;;;9.02;1.70;;;5.50;99.90;;;;;;6178589;23;20003;-74
2022/02/19 04:16:15;;;;;;;13.40;2.15;;;5.50;99.90;;;;;;6177740;23;20051;-74
2022/02/19 04:18:41;;;;;;;11.50;2.58;;;5.50;99.90;;;;;;6179666;23;20100;-74
2022/02/19 04:21:09;;;;;;;9.02;2.78;;;5.50;99.90;;;;;;6178194;23;20009;-74
2022/02/19 04:23:38;;;;;;;10.82;2.08;;;5.50;99.90;;;;;;6177342;23;20458;-75
2022/02/19 04:26:06;;;;;;;8.73;2.10;;;5.50;99.90;;;;;;6177830;23;20013;-75
2022/02/19 04:28:34;;;;;;;18.40;5.03;;;5.50;99.90;;;;;;6177962;23;20463;-74
2022/02/19 04:31:00;;;;;;;12.80;2.72;;;5.40;99.90;;;;;;6177710;23;20428;-74
2022/02/19 04:33:25;;;;;;;15.57;2.53;;;5.20;99.90;;;;;;6176829;23;20103;-73
2022/02/19 04:35:51;;;;;;;14.27;2.38;;;5.10;99.90;;;;;;6179297;23;20172;-74
2022/02/19 04:38:20;;;;;;;12.10;2.28;;;5.00;99.90;;;;;;6177657;23;20428;-73
2022/02/19 04:40:46;;;;;;;14.95;2.60;;;5.00;99.90;;;;;;6177411;23;20466;-74
2022/02/19 04:43:11;;;;;;;13.13;1.95;;;4.90;99.90;;;;;;6176615;23;20005;-74
2022/02/19 04:45:37;;;;;;;14.15;2.08;;;4.80;99.90;;;;;;6179178;23;20413;-74
2022/02/19 04:48:03;;;;;;;10.23;2.53;;;4.80;99.90;;;;;;6179358;23;20340;-73
2022/02/19 04:50:29;;;;;;;13.93;2.90;;;4.80;99.90;;;;;;6177919;23;20005;-74
2022/02/19 04:52:55;;;;;;;18.20;2.78;;;4.90;99.90;;;;;;6178527;23;20087;-74
2022/02/19 04:55:21;;;;;;;14.02;2.58;;;5.00;99.90;;;;;;6179827;23;19997;-74
2022/02/19 04:57:46;;;;;;;11.02;2.00;;;5.00;99.90;;;;;;6179490;23;20428;-74
2022/02/19 05:00:15;;;;;;;16.77;2.65;;;5.00;99.90;;;;;;6180256;23;20379;-74
2022/02/19 05:02:41;;;;;;;11.05;2.35;;;5.00;99.90;;;;;;6176821;23;20009;-74
2022/02/19 05:05:08;;;;;;;12.38;1.70;;;5.00;99.90;;;;;;6179272;23;20001;-74
2022/02/19 05:07:34;;;;;;;11.05;2.22;;;5.00;99.90;;;;;;6177712;23;20298;-74
2022/02/19 05:09:59;;;;;;;6.38;2.00;;;5.00;99.90;;;;;;6179401;23;20004;-74
2022/02/19 05:12:25;;;;;;;10.63;2.03;;;5.00;99.90;;;;;;6178599;23;20051;-74
2022/02/19 05:14:50;;;;;;;10.82;2.20;;;4.90;99.90;;;;;;6177090;23;20092;-74
2022/02/19 05:17:19;;;;;;;9.20;2.10;;;4.90;99.90;;;;;;6179165;23;20040;-73
2022/02/19 05:19:45;;;;;;;9.45;2.33;;;5.00;99.90;;;;;;6177466;23;20082;-74
2022/02/19 05:22:10;;;;;;;11.25;2.60;;;4.90;99.90;;;;;;6178851;23;20009;-74
2022/02/19 05:24:36;;;;;;;8.45;2.22;;;4.90;99.90;;;;;;6177025;23;20005;-74
2022/02/19 05:27:02;;;;;;;13.32;4.30;;;4.80;99.90;;;;;;6177134;23;20096;-73
2022/02/19 05:29:27;;;;;;;10.38;1.92;;;4.80;99.90;;;;;;6179410;23;20009;-74
2022/02/19 05:31:53;;;;;;;14.45;2.90;;;4.80;99.90;;;;;;6177900;23;20067;-73
2022/02/19 05:34:19;;;;;;;7.70;2.00;;;4.70;99.90;;;;;;6178847;23;20432;-73
2022/02/19 05:36:45;;;;;;;7.80;1.52;;;4.60;99.90;;;;;;6150992;23;20005;-74
2022/02/19 05:39:10;;;;;;;7.78;2.03;;;4.60;99.90;;;;;;6151242;23;20424;-74
2022/02/19 05:41:36;;;;;;;13.02;3.83;;;4.60;99.90;;;;;;6150602;23;20049;-73
2022/02/19 05:44:05;;;;;;;16.48;5.10;;;4.60;99.90;;;;;;6149469;23;20400;-74
2022/02/19 05:46:32;;;;;;;8.98;2.35;;;4.60;99.90;;;;;;6149165;23;20033;-74
2022/02/19 05:48:58;;;;;;;7.75;2.03;;;4.60;99.90;;;;;;6149003;23;20001;-74
2022/02/19 05:51:24;;;;;;;10.43;2.15;;;4.50;99.90;;;;;;6148661;23;20012;-74
2022/02/19 05:53:49;;;;;;;18.15;2.95;;;4.60;99.90;;;;;;6148285;23;20013;-73
2022/02/19 05:56:15;;;;;;;8.52;2.17;;;4.60;99.90;;;;;;6150040;23;20332;-74
2022/02/19 05:58:43;;;;;;;14.52;2.13;;;4.60;99.90;;;;;;6149343;23;20005;-73
2022/02/19 06:01:09;;;;;;;10.82;2.28;;;4.60;99.90;;;;;;6150634;23;20101;-79
2022/02/19 06:03:34;;;;;;;11.10;2.85;;;4.70;99.90;;;;;;6152783;23;20036;-79
2022/02/19 06:06:00;;;;;;;5.97;2.30;;;4.60;99.90;;;;;;6173629;23;19994;-81
2022/02/19 06:08:26;;;;;;;14.45;2.25;;;4.60;99.90;;;;;;6159650;23;20001;-80
2022/02/19 06:10:52;;;;;;;17.20;2.58;;;4.70;99.90;;;;;;6151498;23;20092;-79
2022/02/19 06:13:17;;;;;;;9.30;2.55;;;4.70;99.90;;;;;;6152460;23;20029;-78
2022/02/19 06:15:43;;;;;;;9.15;2.13;;;4.70;99.90;;;;;;6149483;23;20068;-77
2022/02/19 06:18:08;;;;;;;12.52;2.50;;;4.70;99.90;;;;;;6151978;23;20001;-78
2022/02/19 06:20:34;;;;;;;17.33;2.95;;;4.80;99.90;;;;;;6153281;23;20076;-79
2022/02/19 06:23:01;;;;;;;6.50;1.80;;;4.70;99.90;;;;;;6151936;23;20328;-79
2022/02/19 06:25:27;;;;;;;15.13;3.83;;;4.80;99.90;;;;;;6149203;23;20432;-79
2022/02/19 06:27:53;;;;;;;10.02;2.40;;;4.70;99.90;;;;;;6150607;23;20344;-78
2022/02/19 06:30:18;;;;;;;13.43;2.60;;;4.70;99.90;;;;;;6151001;23;20088;-78
2022/02/19 06:32:45;;;;;;;11.40;1.80;;;4.70;99.90;;;;;;6150092;23;20033;-78
2022/02/19 06:35:11;;;;;;;15.60;2.10;;;4.70;99.90;;;;;;6151173;23;20029;-78
2022/02/19 06:37:41;;;;;;;10.48;2.50;;;4.70;99.90;;;;;;6151120;23;20056;-79
2022/02/19 06:40:08;;;;;;;9.65;2.10;;;4.50;99.90;;;;;;6152250;23;20001;-81
2022/02/19 06:42:35;;;;;;;10.48;3.03;;;4.50;99.90;;;;;;6151215;23;20009;-80
2022/02/19 06:45:01;;;;;;;12.80;2.33;;;4.40;99.90;;;;;;6155219;23;20006;-80
2022/02/19 06:47:26;;;;;;;15.00;3.20;;;4.40;99.90;;;;;;6154247;23;20080;-82
2022/02/19 06:49:52;;;;;;;14.68;2.58;;;4.30;99.90;;;;;;6153647;23;20353;-80
2022/02/19 06:52:18;;;;;;;11.82;2.53;;;4.30;99.90;;;;;;6151830;23;20013;-78
2022/02/19 06:54:43;;;;;;;12.30;2.47;;;4.30;99.90;;;;;;6153637;23;20452;-81
2022/02/19 06:57:13;;;;;;;15.52;2.92;;;4.30;99.90;;;;;;6153776;23;20064;-80
2022/02/19 06:59:43;;;;;;;8.73;2.08;;;4.20;99.90;;;;;;6152947;23;20002;-80
2022/02/19 07:02:09;;;;;;;12.82;4.43;;;4.20;99.90;;;;;;6152561;23;20020;-80
2022/02/19 07:04:34;;;;;;;9.60;2.53;;;4.10;99.90;;;;;;6151136;23;20005;-80
2022/02/19 07:07:00;;;;;;;13.65;4.45;;;4.10;99.90;;;;;;6150736;23;20059;-79
2022/02/19 07:09:29;;;;;;;15.27;2.50;;;4.10;99.90;;;;;;6151377;23;20257;-80
2022/02/19 07:11:54;;;;;;;18.15;2.00;;;4.10;99.90;;;;;;6150505;23;20310;-79
2022/02/19 07:14:21;;;;;;;9.88;2.30;;;4.10;99.90;;;;;;6148767;23;20366;-79
2022/02/19 07:16:47;;;;;;;8.20;2.25;;;4.10;99.90;;;;;;6149425;23;20333;-80
2022/02/19 07:19:13;;;;;;;9.98;1.98;;;4.10;99.90;;;;;;6148975;23;20012;-80
2022/02/19 07:21:40;;;;;;;14.32;2.55;;;4.10;99.90;;;;;;6149694;23;20068;-81
2022/02/19 07:24:06;;;;;;;10.82;2.97;;;4.10;99.90;;;;;;6150196;23;20052;-80
2022/02/19 07:26:32;;;;;;;11.57;2.55;;;4.20;99.90;;;;;;6149406;23;20064;-79
2022/02/19 07:28:58;;;;;;;15.02;2.60;;;4.20;99.90;;;;;;6150737;23;20425;-80
2022/02/19 07:31:24;;;;;;;13.70;2.88;;;4.20;99.90;;;;;;6151267;23;20002;-79
2022/02/19 07:33:50;;;;;;;14.38;2.72;;;4.20;99.90;;;;;;6150096;23;20033;-80
2022/02/19 07:36:16;;;;;;;13.15;2.40;;;4.20;99.90;;;;;;6148893;23;20064;-79
2022/02/19 07:38:42;;;;;;;12.00;2.70;;;4.20;99.90;;;;;;6149465;23;20012;-80
2022/02/19 07:41:07;;;;;;;12.07;2.55;;;4.10;99.90;;;;;;6150576;23;20033;-80
2022/02/19 07:43:33;;;;;;;13.60;3.35;;;4.10;99.90;;;;;;6147807;23;20009;-79
2022/02/19 07:46:00;;;;;;;14.45;3.13;;;4.20;99.90;;;;;;6148790;23;20001;-79
2022/02/19 07:48:26;;;;;;;11.25;2.42;;;4.20;99.90;;;;;;6148947;23;20009;-80
2022/02/19 07:59:12;;;;;;;17.73;3.10;;;4.30;99.90;;;;;;6151363;23;20036;-79
2022/02/19 08:01:41;;;;;;;13.38;2.83;;;4.40;99.90;;;;;;6151690;23;20001;-80
2022/02/19 08:04:10;;;;;;;6.28;2.47;;;4.50;99.90;;;;;;6150585;23;20369;-80
2022/02/19 08:06:39;;;;;;;12.18;2.72;;;4.50;99.90;;;;;;6150553;23;20002;-80
2022/02/19 08:09:04;;;;;;;11.45;2.42;;;4.60;99.90;;;;;;6150839;23;20372;-79
2022/02/19 08:11:33;;;;;;;12.18;2.92;;;4.70;99.90;;;;;;6149874;23;20018;-80
2022/02/19 08:14:04;;;;;;;17.55;2.88;;;4.70;99.90;;;;;;6150929;23;20436;-79
2022/02/19 08:16:33;;;;;;;10.98;2.53;;;4.80;99.90;;;;;;6150193;23;19998;-80
2022/02/19 08:18:59;;;;;;;11.38;2.72;;;5.00;99.90;;;;;;6145921;23;20009;-79
2022/02/19 08:21:26;;;;;;;9.90;2.55;;;5.10;99.90;;;;;;6151042;23;20008;-79
2022/02/19 08:23:52;;;;;;;22.30;3.58;;;5.10;99.90;;;;;;6145795;23;20433;-79
2022/02/19 08:26:24;;;;;;;12.10;2.30;;;5.10;99.90;;;;;;6151197;23;20013;-79
2022/02/19 08:28:53;;;;;;;11.15;2.53;;;5.10;99.90;;;;;;6150607;23;20005;-79
2022/02/19 08:31:19;;;;;;;14.68;3.63;;;5.20;99.90;;;;;;6149467;23;20002;-79
2022/02/19 08:33:50;;;;;;;14.48;2.70;;;5.20;99.90;;;;;;6148694;23;20072;-79
2022/02/19 08:36:24;;;;;;;5.78;2.00;;;5.20;99.90;;;;;;6149814;23;20008;-79
2022/02/19 08:38:53;;;;;;;19.00;2.33;;;5.20;99.90;;;;;;6151274;23;20020;-79
2022/02/19 08:41:18;;;;;;;11.73;2.63;;;5.30;99.90;;;;;;6149517;23;20088;-79
2022/02/19 08:43:47;;;;;;;13.38;2.72;;;5.30;99.90;;;;;;6149912;23;20408;-74
2022/02/19 08:46:13;;;;;;;14.48;3.13;;;5.40;99.90;;;;;;6149298;23;20010;-75
2022/02/19 08:48:39;;;;;;;11.45;2.42;;;5.40;99.90;;;;;;6147371;23;20008;-74
2022/02/19 08:51:08;;;;;;;15.00;2.72;;;5.40;99.90;;;;;;6146047;23;20471;-74
2022/02/19 08:53:39;;;;;;;8.40;2.28;;;5.50;99.90;;;;;;6147417;23;20052;-74
2022/02/19 08:56:05;;;;;;;17.40;2.60;;;5.50;99.90;;;;;;6149763;23;20165;-74
2022/02/19 08:58:30;;;;;;;18.52;3.28;;;5.50;99.90;;;;;;6149751;23;20005;-75
2022/02/19 09:00:59;;;;;;;32.85;11.55;;;5.50;99.90;;;;;;6149373;23;20076;-75
2022/02/19 09:03:28;;;;;;;12.50;2.83;;;5.50;99.90;;;;;;6150792;23;19998;-75
2022/02/19 09:05:54;;;;;;;19.52;2.65;;;5.60;99.90;;;;;;6149365;23;20001;-74
2022/02/19 09:08:20;;;;;;;7.85;2.42;;;5.60;99.90;;;;;;6149827;23;20010;-74
2022/02/19 09:10:46;;;;;;;8.20;2.45;;;5.60;99.90;;;;;;6149170;23;20227;-74
2022/02/19 09:13:12;;;;;;;19.23;3.17;;;5.60;99.90;;;;;;6144413;23;20108;-74
2022/02/19 09:15:38;;;;;;;11.02;2.30;;;5.60;99.90;;;;;;6147722;23;20276;-74
2022/02/19 09:18:04;;;;;;;10.20;2.80;;;5.70;99.90;;;;;;6148484;23;20006;-74
2022/02/19 09:20:29;;;;;;;13.48;2.30;;;5.70;99.90;;;;;;6150179;23;20008;-75
2022/02/19 09:22:55;;;;;;;21.77;3.10;;;5.70;99.90;;;;;;6150950;23;20028;-75
2022/02/19 09:25:24;;;;;;;12.55;2.38;;;5.80;99.90;;;;;;6149039;23;20009;-74
2022/02/19 09:27:52;;;;;;;18.90;2.85;;;5.90;99.90;;;;;;6150534;23;20002;-75
2022/02/19 09:30:18;;;;;;;19.52;3.45;;;5.90;99.90;;;;;;6150264;23;20005;-75
2022/02/19 09:32:46;;;;;;;9.48;2.60;;;5.90;99.90;;;;;;6148174;23;20099;-75
2022/02/19 09:35:16;;;;;;;13.45;2.72;;;6.00;99.90;;;;;;6150793;23;20344;-75
2022/02/19 09:37:42;;;;;;;13.18;3.53;;;6.00;99.90;;;;;;6174336;23;20025;-75
2022/02/19 09:40:10;;;;;;;12.02;2.33;;;5.90;99.90;;;;;;6150564;23;20064;-74
2022/02/19 09:42:37;;;;;;;12.70;2.58;;;6.00;99.90;;;;;;6150442;23;19997;-75
2022/02/19 09:45:07;;;;;;;9.70;2.50;;;6.00;99.90;;;;;;6150436;23;20009;-75
2022/02/19 09:47:35;;;;;;;11.65;3.47;;;6.00;99.90;;;;;;6151237;23;20369;-76
2022/02/19 09:50:01;;;;;;;10.60;2.67;;;5.90;99.90;;;;;;6149013;23;20432;-75
2022/02/19 09:52:30;;;;;;;12.80;2.30;;;5.90;99.90;;;;;;6150744;23;20173;-75
2022/02/19 09:54:58;;;;;;;9.77;2.53;;;5.90;99.90;;;;;;6150744;23;20002;-75
2022/02/19 09:57:24;;;;;;;14.10;2.75;;;5.80;99.90;;;;;;6148864;23;20432;-75
2022/02/19 09:59:53;;;;;;;7.55;2.35;;;5.80;99.90;;;;;;6149920;23;20036;-74
2022/02/19 10:02:32;;;;;;;10.35;2.42;;;5.80;99.90;;;;;;6152141;23;20013;-80
2022/02/19 10:05:19;;;;;;;9.10;2.95;;;5.80;99.90;;;;;;6151549;23;19998;-80
2022/02/19 10:08:03;;;;;;;13.90;3.47;;;5.90;99.90;;;;;;6150538;23;20048;-80
2022/02/19 10:10:34;;;;;;;13.05;3.17;;;6.00;99.90;;;;;;6150781;23;20009;-80
2022/02/19 10:13:00;;;;;;;20.77;3.92;;;6.00;99.90;;;;;;6150705;23;20005;-80
2022/02/19 10:15:45;;;;;;;12.18;3.25;;;6.00;99.90;;;;;;6151501;23;20437;-80
2022/02/19 10:18:22;;;;;;;12.38;2.50;;;5.90;99.90;;;;;;6150104;23;20599;-80
2022/02/19 10:21:13;;;;;;;16.15;2.33;;;5.90;99.90;;;;;;6149813;23;20080;-80
2022/02/19 10:23:53;;;;;;;11.77;2.35;;;6.00;99.90;;;;;;6159124;23;20527;-80
2022/02/19 10:26:20;;;;;;;;;;;6.20;99.90;;;;;;6152562;23;20009;-80
2022/02/19 10:29:12;;;;;;;10.27;2.38;;;6.30;99.90;;;;;;6154213;23;19905;-79
2022/02/19 10:31:40;;;;;;;11.50;3.17;;;6.20;99.90;;;;;;6154271;23;20348;-80
2022/02/19 10:34:08;;;;;;;11.45;2.75;;;6.30;99.90;;;;;;6152583;23;20377;-79
2022/02/19 10:36:56;;;;;;;15.50;2.58;;;6.30;99.90;;;;;;6153389;23;20010;-80
2022/02/19 10:39:36;;;;;;;14.65;2.72;;;6.40;99.90;;;;;;6156018;23;20021;-80
2022/02/19 10:42:09;;;;;;;12.25;2.65;;;6.50;99.90;;;;;;6157329;23;20084;-80
2022/02/19 10:44:35;;;;;;;10.75;3.13;;;6.50;99.90;;;;;;6167047;23;20005;-81
2022/02/19 10:47:29;;;;;;;11.98;2.38;;;6.60;99.90;;;;;;6170250;23;20006;-81
2022/02/19 10:50:31;;;;;;;9.25;2.13;;;6.50;99.90;;;;;;6166554;23;20002;-80
2022/02/19 10:52:57;;;;;;;16.02;2.50;;;6.40;99.90;;;;;;6165647;23;20060;-80
2022/02/19 10:55:56;;;;;;;8.13;2.08;;;6.40;99.90;;;;;;6160261;23;20001;-80
2022/02/19 10:58:25;;;;;;;7.25;2.20;;;6.40;99.90;;;;;;6173800;23;20008;-80
2022/02/19 11:00:58;;;;;;;7.22;2.20;;;6.50;99.90;;;;;;6168671;23;20457;-80
2022/02/19 11:03:26;;;;;;;13.85;2.67;;;6.50;99.90;;;;;;6170816;23;20005;-80
2022/02/19 11:05:56;;;;;;;13.23;4.05;;;6.50;99.90;;;;;;6169698;23;20006;-81
2022/02/19 11:08:25;;;;;;;10.80;2.78;;;6.50;99.90;;;;;;6159586;23;20010;-81
2022/02/19 11:10:51;;;;;;;8.48;3.35;;;6.50;99.90;;;;;;6165078;23;20013;-81
2022/02/19 11:13:17;;;;;;;15.50;2.90;;;6.40;99.90;;;;;;6162943;23;20021;-81
2022/02/19 11:15:46;;;;;;;10.35;2.65;;;6.40;99.90;;;;;;6165136;23;20173;-81
2022/02/19 11:18:15;;;;;;;14.48;3.53;;;6.30;99.90;;;;;;6163113;23;20440;-81
2022/02/19 11:20:41;;;;;;;22.30;2.97;;;6.30;99.90;;;;;;6155677;23;20012;-74
2022/02/19 11:23:14;;;;;;;6.18;2.47;;;6.20;99.90;;;;;;6153577;23;20009;-74
2022/02/19 11:25:49;;;;;;;11.65;3.17;;;6.10;99.90;;;;;;6151522;23;20009;-73
2022/02/19 11:28:15;;;;;;;9.77;3.35;;;6.00;99.90;;;;;;6156767;23;20056;-80
2022/02/19 11:30:49;;;;;;;17.27;3.53;;;6.20;99.90;;;;;;6157445;23;20445;-80
2022/02/19 11:33:17;;;;;;;11.57;2.70;;;6.30;99.90;;;;;;6156115;23;20013;-80
2022/02/19 11:35:43;;;;;;;11.55;2.83;;;6.40;99.90;;;;;;6159657;23;20002;-80
2022/02/19 11:38:36;;;;;;;8.82;2.38;;;6.40;99.90;;;;;;6159856;23;20029;-80
2022/02/19 11:41:07;;;;;;;16.48;2.53;;;6.50;99.90;;;;;;6159267;23;20025;-80
2022/02/19 11:43:45;;;;;;;18.33;3.05;;;6.40;99.90;;;;;;6158640;23;20016;-80
2022/02/19 11:46:13;;;;;;;14.43;2.60;;;6.40;99.90;;;;;;6157682;23;20313;-81
2022/02/19 11:48:47;;;;;;;9.90;3.53;;;6.40;99.90;;;;;;6156916;23;20002;-81
2022/02/19 11:51:16;;;;;;;9.23;2.35;;;6.40;99.90;;;;;;6156502;23;20005;-81
2022/02/19 11:53:44;;;;;;;11.50;2.10;;;6.40;99.90;;;;;;6154114;23;20020;-80
2022/02/19 11:56:24;;;;;;;8.77;2.60;;;6.50;99.90;;;;;;6158276;23;20020;-81
2022/02/19 11:58:51;;;;;;;9.65;2.38;;;6.50;99.90;;;;;;6157132;23;19997;-80
2022/02/19 12:01:17;;;;;;;17.92;2.97;;;6.60;99.90;;;;;;6159149;23;20032;-81
2022/02/19 12:03:45;;;;;;;8.88;2.28;;;6.60;99.90;;;;;;6157674;23;20009;-81
2022/02/19 12:06:20;;;;;;;9.95;2.95;;;6.60;99.90;;;;;;6156105;23;20009;-80
2022/02/19 12:08:48;;;;;;;10.52;2.60;;;6.50;99.90;;;;;;6151815;23;20005;-74
2022/02/19 12:11:19;;;;;;;18.70;3.55;;;6.60;99.90;;;;;;6149444;23;20127;-74
2022/02/19 12:13:50;;;;;;;9.05;2.60;;;6.50;99.90;;;;;;6148530;23;20012;-74
2022/02/19 12:16:45;;;;;;;;;;;6.50;99.90;;;;;;6152102;23;20336;-75
2022/02/19 12:19:11;;;;;;;7.05;1.70;;;6.60;99.90;;;;;;6145096;23;19908;-75
2022/02/19 12:21:38;;;;;;;8.82;2.40;;;6.70;99.90;;;;;;6150038;23;20417;-75
2022/02/19 12:24:13;;;;;;;10.68;2.53;;;6.70;99.90;;;;;;6150982;23;20002;-75
2022/02/19 12:26:57;;;;;;;14.73;2.80;;;6.70;99.90;;;;;;6149413;23;20002;-75
2022/02/19 12:29:41;;;;;;;19.65;2.90;;;6.70;99.90;;;;;;6151221;23;20012;-75
2022/02/19 12:32:17;;;;;;;8.50;2.70;;;6.60;99.90;;;;;;6150066;23;20005;-81
2022/02/19 12:34:52;;;;;;;16.65;6.35;;;6.60;99.90;;;;;;6147966;23;20002;-81
2022/02/19 12:37:18;;;;;;;12.30;3.88;;;6.70;99.90;;;;;;6151912;23;19998;-84
2022/02/19 12:39:49;;;;;;;10.70;2.38;;;6.70;99.90;;;;;;6149708;23;20361;-81
2022/02/19 12:42:19;;;;;;;9.77;2.50;;;6.80;99.90;;;;;;6150718;23;20433;-81
2022/02/19 12:44:47;;;;;;;11.95;2.55;;;6.90;99.90;;;;;;6152305;23;20009;-81
2022/02/19 12:47:14;;;;;;;6.97;2.15;;;7.00;99.90;;;;;;6152671;23;20053;-81
2022/02/19 12:49:40;;;;;;;10.88;2.22;;;6.90;99.90;;;;;;6150307;23;20010;-80
2022/02/19 12:52:05;;;;;;;6.60;2.45;;;6.90;99.90;;;;;;6151732;23;20088;-81
2022/02/19 12:54:39;;;;;;;16.83;3.40;;;6.90;99.90;;;;;;6149824;23;20013;-80
2022/02/19 12:57:07;;;;;;;10.43;2.22;;;6.90;99.90;;;;;;6152009;23;20002;-80
2022/02/19 12:59:35;;;;;;;7.88;1.75;;;6.80;99.90;;;;;;6150356;23;20285;-80
2022/02/19 13:02:05;;;;;;;9.45;2.30;;;6.80;99.90;;;;;;6151892;23;20052;-81
2022/02/19 13:04:33;;;;;;;5.07;2.25;;;6.80;99.90;;;;;;6151269;23;20008;-81